createdAt,value
2018-12-15T00:01:45.674Z,59.73
2018-12-15T00:04:14.222Z,59.37
2018-12-15T00:06:42.677Z,59.12
2018-12-15T00:09:11.170Z,59.26
2018-12-15T00:11:39.645Z,59.29
2018-12-15T00:14:08.110Z,59.76
2018-12-15T00:16:36.572Z,59.45
2018-12-15T00:19:05.083Z,59.21
2018-12-15T00:21:33.529Z,59.47
2018-12-15T00:24:02.126Z,58.82
2018-12-15T00:26:30.611Z,59.39
2018-12-15T00:28:59.171Z,59.32
2018-12-15T00:31:27.628Z,59.42
2018-12-15T00:33:56.141Z,58.97
2018-12-15T00:36:24.888Z,59.22
2018-12-15T00:38:53.380Z,59.50
2018-12-15T00:41:21.830Z,58.98
2018-12-15T00:43:50.326Z,58.76
2018-12-15T00:46:18.894Z,59.45
2018-12-15T00:48:47.405Z,59.54
2018-12-15T00:51:15.943Z,59.46
2018-12-15T00:53:44.414Z,58.88
2018-12-15T00:56:12.882Z,58.65
2018-12-15T00:58:41.415Z,58.83
2018-12-15T01:01:09.983Z,59.66
2018-12-15T01:03:38.494Z,58.78
2018-12-15T01:06:06.968Z,59.54
2018-12-15T01:08:35.475Z,59.57
2018-12-15T01:11:03.955Z,59.33
2018-12-15T01:13:32.536Z,58.86
2018-12-15T01:16:00.997Z,59.46
2018-12-15T01:18:29.510Z,59.86
2018-12-15T01:20:57.981Z,59.16
2018-12-15T01:23:26.484Z,59.32
2018-12-15T01:25:55.050Z,59.02
2018-12-15T01:28:23.558Z,59.45
2018-12-15T01:30:52.033Z,58.92
2018-12-15T01:33:20.530Z,58.81
2018-12-15T01:35:48.990Z,59.11
2018-12-15T01:38:17.501Z,59.31
2018-12-15T01:40:46.186Z,58.89
2018-12-15T01:43:14.663Z,59.69
2018-12-15T01:45:43.163Z,58.70
2018-12-15T01:48:11.669Z,58.57
2018-12-15T01:50:40.128Z,58.19
2018-12-15T01:53:08.626Z,58.15
2018-12-15T01:55:37.190Z,58.33
2018-12-15T01:58:05.755Z,58.93
2018-12-15T02:00:34.281Z,58.63
2018-12-15T02:03:02.779Z,58.15
2018-12-15T02:05:31.253Z,58.74
2018-12-15T02:07:59.779Z,58.58
2018-12-15T02:10:28.325Z,58.96
2018-12-15T02:12:56.799Z,58.48
2018-12-15T02:15:25.300Z,58.73
2018-12-15T02:17:54.423Z,58.23
2018-12-15T02:20:23.038Z,59.02
2018-12-15T02:22:51.578Z,59.15
2018-12-15T02:25:20.093Z,59.00
2018-12-15T02:27:48.667Z,59.31
2018-12-15T02:30:17.236Z,59.26
2018-12-15T02:32:45.722Z,58.90
2018-12-15T02:35:14.184Z,59.14
2018-12-15T02:37:42.663Z,58.67
2018-12-15T02:40:11.247Z,58.88
2018-12-15T02:42:39.749Z,58.85
2018-12-15T02:45:08.247Z,59.17
2018-12-15T02:47:41.583Z,59.17
2018-12-15T02:50:07.365Z,58.65
2018-12-15T02:52:35.891Z,58.92
2018-12-15T02:55:04.577Z,59.10
2018-12-15T02:57:33.162Z,58.79
2018-12-15T03:00:01.639Z,58.54
2018-12-15T03:02:30.236Z,58.40
2018-12-15T03:04:58.702Z,58.15
2018-12-15T03:07:27.465Z,58.74
2018-12-15T03:09:55.964Z,59.00
2018-12-15T03:12:24.541Z,59.55
2018-12-15T03:14:53.053Z,59.37
2018-12-15T03:17:21.524Z,59.18
2018-12-15T03:19:50.600Z,58.04
2018-12-15T03:22:19.150Z,59.09
2018-12-15T03:24:47.726Z,58.82
2018-12-15T03:27:16.295Z,59.42
2018-12-15T03:29:44.795Z,59.56
2018-12-15T03:32:13.279Z,59.99
2018-12-15T03:34:41.742Z,59.49
2018-12-15T03:37:10.232Z,59.02
2018-12-15T03:39:38.686Z,59.53
2018-12-15T03:42:07.177Z,58.88
2018-12-15T03:44:35.707Z,59.27
2018-12-15T03:47:04.231Z,59.62
2018-12-15T03:49:32.799Z,58.82
2018-12-15T03:52:01.313Z,59.11
2018-12-15T03:54:29.789Z,59.14
2018-12-15T03:56:58.287Z,59.48
2018-12-15T03:59:27.074Z,59.21
2018-12-15T04:01:55.563Z,59.92
2018-12-15T04:04:24.109Z,59.92
2018-12-15T04:06:52.591Z,58.99
2018-12-15T04:09:21.084Z,59.66
2018-12-15T04:11:49.600Z,59.73
2018-12-15T04:14:18.189Z,59.73
2018-12-15T04:16:46.771Z,60.36
2018-12-15T04:19:15.258Z,60.36
2018-12-15T04:21:43.735Z,59.78
2018-12-15T04:24:12.207Z,59.63
2018-12-15T04:26:40.669Z,59.39
2018-12-15T04:29:12.274Z,59.48
2018-12-15T04:31:40.985Z,59.15
2018-12-15T04:34:09.453Z,59.62
2018-12-15T04:36:37.934Z,59.53
2018-12-15T04:39:06.777Z,59.98
2018-12-15T04:41:35.322Z,59.66
2018-12-15T04:44:04.054Z,58.80
2018-12-15T04:46:32.523Z,59.04
2018-12-15T04:49:01.073Z,58.40
2018-12-15T04:51:29.534Z,59.25
2018-12-15T04:53:58.078Z,59.27
2018-12-15T04:56:26.565Z,58.86
2018-12-15T04:58:55.024Z,58.54
2018-12-15T05:01:23.531Z,59.11
2018-12-15T05:03:52.078Z,58.88
2018-12-15T05:06:20.597Z,58.78
2018-12-15T05:08:49.074Z,59.74
2018-12-15T05:11:17.559Z,58.68
2018-12-15T05:13:46.217Z,58.97
2018-12-15T05:16:14.704Z,58.43
2018-12-15T05:18:43.304Z,59.20
2018-12-15T05:21:11.817Z,59.06
2018-12-15T05:23:40.367Z,58.92
2018-12-15T05:26:08.899Z,58.81
2018-12-15T05:28:37.372Z,59.00
2018-12-15T05:31:05.973Z,58.63
2018-12-15T05:33:34.768Z,58.84
2018-12-15T05:36:03.279Z,58.30
2018-12-15T05:38:31.730Z,58.90
2018-12-15T05:41:00.210Z,59.31
2018-12-15T05:43:28.731Z,59.18
2018-12-15T05:45:57.341Z,58.64
2018-12-15T05:48:25.810Z,58.75
2018-12-15T05:50:54.277Z,58.66
2018-12-15T05:53:22.823Z,58.73
2018-12-15T05:55:52.027Z,59.12
2018-12-15T05:58:20.520Z,59.24
2018-12-15T06:00:49.138Z,59.49
2018-12-15T06:03:17.710Z,59.31
2018-12-15T06:05:46.203Z,58.90
2018-12-15T06:08:14.683Z,58.26
2018-12-15T06:10:43.789Z,58.27
2018-12-15T06:13:12.258Z,58.34
2018-12-15T06:15:40.763Z,58.91
2018-12-15T06:18:09.225Z,58.99
2018-12-15T06:20:37.731Z,58.59
2018-12-15T06:23:06.210Z,58.14
2018-12-15T06:25:34.752Z,58.61
2018-12-15T06:28:03.317Z,58.61
2018-12-15T06:30:31.786Z,58.15
2018-12-15T06:33:00.354Z,58.35
2018-12-15T06:35:28.867Z,58.14
2018-12-15T06:37:57.320Z,58.47
2018-12-15T06:40:25.977Z,58.06
2018-12-15T06:42:55.954Z,57.98
2018-12-15T06:45:24.485Z,58.67
2018-12-15T06:47:53.026Z,58.56
2018-12-15T06:50:21.514Z,58.11
2018-12-15T06:52:50.099Z,57.69
2018-12-15T06:55:18.609Z,57.70
2018-12-15T06:57:47.159Z,58.22
2018-12-15T07:00:15.641Z,58.68
2018-12-15T07:02:44.108Z,58.46
2018-12-15T07:05:12.733Z,57.94
2018-12-15T07:07:41.213Z,57.77
2018-12-15T07:10:09.845Z,57.64
2018-12-15T07:12:39.319Z,57.61
2018-12-15T07:15:08.570Z,57.93
2018-12-15T07:17:37.470Z,57.58
2018-12-15T07:20:06.446Z,57.51
2018-12-15T07:22:34.979Z,57.83
2018-12-15T07:25:03.623Z,57.81
2018-12-15T07:27:32.178Z,58.26
2018-12-15T07:30:01.608Z,56.48
2018-12-15T07:32:30.165Z,56.79
2018-12-15T07:35:01.139Z,57.07
2018-12-15T07:37:29.172Z,55.19
2018-12-15T07:39:57.699Z,55.05
2018-12-15T07:42:26.270Z,55.38
2018-12-15T07:44:54.770Z,56.13
2018-12-15T07:47:23.246Z,56.70
2018-12-15T07:49:51.715Z,56.63
2018-12-15T07:52:20.186Z,56.56
2018-12-15T07:54:48.764Z,56.16
2018-12-15T07:57:17.233Z,56.50
2018-12-15T07:59:45.710Z,56.19
2018-12-15T08:02:14.172Z,56.25
2018-12-15T08:04:42.642Z,55.27
2018-12-15T08:07:11.429Z,54.97
2018-12-15T08:09:39.953Z,54.58
2018-12-15T08:12:13.665Z,55.22
2018-12-15T08:14:42.238Z,55.64
2018-12-15T08:17:10.798Z,55.83
2018-12-15T08:19:39.331Z,54.54
2018-12-15T08:22:07.783Z,54.00
2018-12-15T08:24:36.278Z,53.85
2018-12-15T08:27:04.965Z,53.37
2018-12-15T08:29:33.454Z,53.04
2018-12-15T08:32:02.018Z,52.88
2018-12-15T08:34:30.497Z,52.31
2018-12-15T08:37:00.494Z,53.11
2018-12-15T08:39:29.027Z,53.91
2018-12-15T08:41:57.546Z,53.63
2018-12-15T08:44:26.111Z,53.42
2018-12-15T08:46:54.588Z,52.83
2018-12-15T08:49:23.109Z,52.58
2018-12-15T08:51:51.598Z,52.28
2018-12-15T08:54:20.061Z,51.91
2018-12-15T08:56:48.540Z,52.43
2018-12-15T08:59:17.023Z,52.52
2018-12-15T09:01:45.506Z,52.48
2018-12-15T09:04:14.115Z,52.33
2018-12-15T09:06:42.585Z,51.97
2018-12-15T09:09:11.110Z,50.71
2018-12-15T09:11:39.691Z,51.65
2018-12-15T09:14:08.190Z,52.03
2018-12-15T09:16:36.639Z,52.02
2018-12-15T09:19:11.067Z,51.32
2018-12-15T09:21:35.753Z,51.35
2018-12-15T09:24:04.524Z,51.90
2018-12-15T09:26:33.111Z,51.72
2018-12-15T09:29:01.626Z,52.46
2018-12-15T09:31:30.114Z,51.58
2018-12-15T09:33:58.770Z,52.37
2018-12-15T09:36:27.249Z,52.22
2018-12-15T09:38:56.019Z,52.15
2018-12-15T09:41:24.469Z,51.63
2018-12-15T09:43:53.002Z,51.80
2018-12-15T09:46:21.464Z,52.76
2018-12-15T09:48:50.765Z,52.77
2018-12-15T09:51:19.244Z,51.64
2018-12-15T09:53:48.990Z,51.63
2018-12-15T09:56:17.626Z,51.96
2018-12-15T09:58:46.099Z,52.09
2018-12-15T10:01:14.586Z,51.86
2018-12-15T10:03:43.271Z,51.63
2018-12-15T10:06:11.778Z,51.89
2018-12-15T10:08:40.243Z,51.67
2018-12-15T10:11:08.755Z,51.56
2018-12-15T10:13:37.257Z,51.66
2018-12-15T10:16:05.889Z,51.65
2018-12-15T10:18:34.394Z,51.48
2018-12-15T10:21:02.881Z,51.37
2018-12-15T10:23:31.422Z,51.87
2018-12-15T10:25:59.882Z,51.72
2018-12-15T10:28:28.396Z,51.33
2018-12-15T10:31:02.126Z,50.86
2018-12-15T10:33:30.643Z,51.38
2018-12-15T10:35:59.143Z,53.41
2018-12-15T10:38:27.782Z,51.66
2018-12-15T10:40:56.317Z,51.68
2018-12-15T10:43:24.822Z,51.01
2018-12-15T10:45:53.275Z,51.86
2018-12-15T10:48:21.778Z,51.14
2018-12-15T10:50:50.249Z,51.02
2018-12-15T10:53:18.835Z,51.51
2018-12-15T10:55:47.293Z,51.54
2018-12-15T10:58:15.913Z,50.65
2018-12-15T11:00:49.583Z,50.62
2018-12-15T11:03:18.742Z,51.17
2018-12-15T11:05:47.206Z,51.26
2018-12-15T11:08:15.684Z,50.86
2018-12-15T11:10:44.210Z,51.10
2018-12-15T11:13:12.774Z,51.64
2018-12-15T11:15:41.214Z,51.21
2018-12-15T11:18:09.777Z,51.04
2018-12-15T11:20:38.388Z,50.46
2018-12-15T11:23:06.901Z,51.04
2018-12-15T11:25:36.338Z,50.93
2018-12-15T11:28:04.945Z,49.91
2018-12-15T11:30:33.449Z,50.46
2018-12-15T11:33:04.467Z,49.31
2018-12-15T11:35:35.189Z,49.44
2018-12-15T11:38:06.393Z,49.88
2018-12-15T11:40:37.470Z,50.09
2018-12-15T11:43:09.059Z,49.89
2018-12-15T11:45:40.255Z,50.55
2018-12-15T11:48:13.286Z,50.03
2018-12-15T11:50:44.642Z,50.94
2018-12-15T11:53:16.573Z,50.78
2018-12-15T11:55:47.747Z,50.52
2018-12-15T11:58:20.395Z,51.01
2018-12-15T12:00:52.661Z,51.03
2018-12-15T12:03:23.992Z,50.79
2018-12-15T12:05:55.099Z,50.71
2018-12-15T12:08:26.385Z,50.38
2018-12-15T12:10:57.630Z,51.19
2018-12-15T12:13:28.804Z,51.33
2018-12-15T12:15:58.614Z,51.92
2018-12-15T12:18:27.919Z,51.76
2018-12-15T12:20:59.136Z,51.46
2018-12-15T12:23:29.378Z,50.71
2018-12-15T12:26:00.499Z,51.84
2018-12-15T12:28:31.507Z,51.50
2018-12-15T12:31:03.642Z,51.78
2018-12-15T12:33:34.011Z,51.33
2018-12-15T12:36:04.109Z,51.24
2018-12-15T12:38:41.164Z,51.12
2018-12-15T12:41:11.943Z,51.12
2018-12-15T12:43:42.608Z,51.61
2018-12-15T12:46:13.471Z,50.75
2018-12-15T12:48:44.666Z,50.05
2018-12-15T12:51:13.743Z,51.21
2018-12-15T12:53:42.297Z,51.70
2018-12-15T12:56:10.806Z,51.69
2018-12-15T12:58:39.289Z,51.49
2018-12-15T13:01:08.697Z,51.04
2018-12-15T13:03:37.177Z,51.28
2018-12-15T13:06:05.646Z,51.37
2018-12-15T13:08:34.242Z,51.06
2018-12-15T13:11:02.828Z,51.36
2018-12-15T13:13:31.335Z,51.34
2018-12-15T13:15:59.890Z,51.11
2018-12-15T13:18:28.390Z,50.72
2018-12-15T13:20:56.962Z,50.96
2018-12-15T13:23:25.447Z,50.50
2018-12-15T13:25:53.929Z,50.57
2018-12-15T13:28:23.900Z,50.08
2018-12-15T13:30:52.927Z,49.88
2018-12-15T13:33:32.276Z,49.65
2018-12-15T13:36:05.028Z,50.10
2018-12-15T13:38:36.788Z,49.80
2018-12-15T13:41:06.590Z,50.09
2018-12-15T13:43:37.775Z,48.72
2018-12-15T13:46:07.447Z,49.13
2018-12-15T13:48:37.219Z,49.57
2018-12-15T13:51:06.715Z,49.48
2018-12-15T13:53:35.233Z,49.36
2018-12-15T13:56:08.511Z,49.04
2018-12-15T13:58:37.140Z,49.38
2018-12-15T14:01:05.830Z,49.61
2018-12-15T14:03:34.407Z,49.91
2018-12-15T14:06:03.014Z,49.67
2018-12-15T14:08:31.513Z,49.80
2018-12-15T14:10:59.970Z,49.60
2018-12-15T14:13:28.460Z,49.24
2018-12-15T14:15:56.958Z,49.56
2018-12-15T14:18:25.673Z,49.76
2018-12-15T14:20:54.210Z,48.86
2018-12-15T14:23:22.806Z,49.35
2018-12-15T14:25:51.466Z,50.29
2018-12-15T14:28:19.990Z,50.31
2018-12-15T14:30:48.541Z,50.25
2018-12-15T14:33:17.213Z,50.09
2018-12-15T14:35:45.806Z,50.12
2018-12-15T14:38:14.487Z,50.61
2018-12-15T14:40:43.178Z,50.56
2018-12-15T14:43:11.759Z,50.77
2018-12-15T14:45:40.303Z,51.02
2018-12-15T14:48:09.058Z,51.05
2018-12-15T14:50:37.535Z,51.14
2018-12-15T14:53:06.046Z,51.44
2018-12-15T14:55:34.733Z,51.52
2018-12-15T14:58:03.258Z,51.63
2018-12-15T15:00:31.836Z,51.29
2018-12-15T15:03:00.435Z,51.17
2018-12-15T15:05:28.927Z,50.79
2018-12-15T15:07:57.459Z,51.21
2018-12-15T15:10:26.673Z,51.65
2018-12-15T15:12:55.151Z,51.72
2018-12-15T15:15:23.686Z,51.76
2018-12-15T15:17:52.289Z,52.18
2018-12-15T15:20:21.377Z,52.50
2018-12-15T15:22:50.058Z,52.22
2018-12-15T15:25:18.637Z,51.35
2018-12-15T15:27:47.333Z,51.96
2018-12-15T15:30:16.186Z,51.71
2018-12-15T15:32:45.930Z,52.57
2018-12-15T15:35:14.881Z,52.65
2018-12-15T15:37:43.434Z,52.52
2018-12-15T15:40:12.065Z,52.64
2018-12-15T15:42:40.709Z,53.33
2018-12-15T15:45:09.458Z,52.83
2018-12-15T15:47:38.607Z,53.26
2018-12-15T15:50:08.485Z,53.02
2018-12-15T15:52:37.150Z,53.34
2018-12-15T15:55:06.932Z,54.17
2018-12-15T15:57:35.525Z,54.24
2018-12-15T16:00:05.143Z,53.80
2018-12-15T16:02:33.855Z,53.53
2018-12-15T16:05:02.515Z,53.56
2018-12-15T16:07:31.210Z,53.36
2018-12-15T16:09:59.790Z,54.10
2018-12-15T16:12:28.315Z,53.85
2018-12-15T16:14:56.792Z,53.84
2018-12-15T16:17:25.269Z,53.80
2018-12-15T16:19:53.806Z,53.58
2018-12-15T16:22:22.382Z,54.18
2018-12-15T16:24:51.140Z,54.65
2018-12-15T16:27:19.723Z,54.34
2018-12-15T16:29:48.182Z,54.04
2018-12-15T16:32:17.535Z,54.52
2018-12-15T16:34:46.051Z,54.61
2018-12-15T16:37:15.525Z,54.93
2018-12-15T16:39:44.886Z,54.51
2018-12-15T16:42:13.551Z,55.17
2018-12-15T16:44:42.170Z,54.55
2018-12-15T16:47:10.733Z,54.71
2018-12-15T16:49:39.208Z,54.63
2018-12-15T16:52:08.324Z,54.96
2018-12-15T16:54:36.794Z,54.86
2018-12-15T16:57:06.095Z,54.89
2018-12-15T16:59:34.658Z,55.25
2018-12-15T17:02:03.722Z,55.41
2018-12-15T17:04:32.211Z,55.47
2018-12-15T17:07:00.723Z,55.67
2018-12-15T17:09:29.216Z,55.77
2018-12-15T17:11:57.730Z,55.53
2018-12-15T17:14:26.278Z,55.85
2018-12-15T17:16:55.620Z,56.52
2018-12-15T17:19:24.231Z,56.13
2018-12-15T17:21:52.770Z,55.97
2018-12-15T17:24:21.401Z,56.10
2018-12-15T17:26:49.901Z,55.77
2018-12-15T17:29:18.403Z,55.92
2018-12-15T17:31:47.074Z,55.86
2018-12-15T17:34:15.659Z,56.43
2018-12-15T17:36:44.451Z,56.08
2018-12-15T17:39:13.717Z,55.96
2018-12-15T17:41:43.494Z,55.92
2018-12-15T17:44:13.359Z,56.32
2018-12-15T17:46:43.664Z,56.10
2018-12-15T17:49:12.989Z,55.78
2018-12-15T17:51:42.006Z,55.76
2018-12-15T17:54:11.428Z,55.92
2018-12-15T17:56:41.247Z,55.78
2018-12-15T17:59:10.082Z,55.47
2018-12-15T18:01:38.918Z,55.30
2018-12-15T18:04:07.662Z,55.49
2018-12-15T18:06:36.285Z,55.67
2018-12-15T18:09:07.226Z,55.78
2018-12-15T18:11:36.014Z,55.71
2018-12-15T18:14:04.743Z,55.54
2018-12-15T18:16:33.287Z,55.91
2018-12-15T18:19:03.274Z,55.61
2018-12-15T18:21:32.053Z,55.38
2018-12-15T18:24:01.287Z,56.02
2018-12-15T18:26:30.157Z,55.65
2018-12-15T18:28:58.775Z,56.01
2018-12-15T18:31:27.513Z,55.81
2018-12-15T18:33:57.043Z,56.38
2018-12-15T18:36:26.706Z,55.84
2018-12-15T18:38:55.855Z,56.26
2018-12-15T18:41:24.681Z,55.79
2018-12-15T18:43:54.663Z,55.91
2018-12-15T18:46:24.220Z,55.68
2018-12-15T18:48:55.070Z,55.67
2018-12-15T18:51:24.318Z,55.94
2018-12-15T18:53:52.887Z,56.07
2018-12-15T18:56:22.086Z,55.74
2018-12-15T18:58:50.573Z,56.10
2018-12-15T19:01:19.391Z,56.62
2018-12-15T19:03:48.162Z,57.03
2018-12-15T19:06:16.679Z,56.81
2018-12-15T19:08:45.389Z,56.99
2018-12-15T19:11:13.869Z,56.74
2018-12-15T19:13:42.535Z,56.22
2018-12-15T19:16:11.153Z,56.77
2018-12-15T19:18:39.759Z,56.35
2018-12-15T19:21:08.358Z,57.06
2018-12-15T19:23:36.889Z,56.38
2018-12-15T19:26:06.114Z,56.70
2018-12-15T19:28:34.618Z,57.07
2018-12-15T19:31:03.330Z,56.79
2018-12-15T19:33:32.479Z,57.19
2018-12-15T19:36:01.014Z,57.36
2018-12-15T19:38:29.633Z,57.54
2018-12-15T19:40:58.190Z,57.57
2018-12-15T19:43:26.721Z,57.73
2018-12-15T19:45:55.372Z,56.60
2018-12-15T19:48:23.967Z,57.32
2018-12-15T19:50:52.503Z,57.63
2018-12-15T19:53:21.116Z,57.55
2018-12-15T19:55:49.701Z,57.28
2018-12-15T19:58:19.106Z,56.75
2018-12-15T20:00:47.769Z,56.98
2018-12-15T20:03:16.298Z,57.08
2018-12-15T20:05:44.870Z,57.36
2018-12-15T20:08:13.603Z,57.96
2018-12-15T20:10:42.104Z,57.77
2018-12-15T20:13:10.727Z,57.82
2018-12-15T20:15:40.432Z,58.03
2018-12-15T20:18:09.369Z,57.35
2018-12-15T20:20:38.093Z,56.81
2018-12-15T20:23:06.713Z,57.16
2018-12-15T20:25:35.217Z,57.83
2018-12-15T20:28:04.542Z,58.01
2018-12-15T20:30:33.131Z,57.59
2018-12-15T20:33:01.678Z,58.07
2018-12-15T20:35:30.175Z,57.88
2018-12-15T20:37:58.661Z,58.12
2018-12-15T20:40:27.185Z,57.54
2018-12-15T20:42:55.698Z,58.75
2018-12-15T20:45:24.188Z,58.37
2018-12-15T20:47:52.683Z,58.45
2018-12-15T20:50:21.718Z,58.19
2018-12-15T20:52:50.829Z,58.24
2018-12-15T20:55:19.460Z,58.58
2018-12-15T20:57:49.327Z,57.87
2018-12-15T21:00:18.098Z,58.50
2018-12-15T21:02:46.685Z,57.90
2018-12-15T21:05:15.269Z,57.35
2018-12-15T21:07:43.966Z,58.09
2018-12-15T21:10:13.211Z,58.29
2018-12-15T21:12:43.397Z,57.95
2018-12-15T21:15:18.194Z,57.96
2018-12-15T21:17:46.747Z,58.23
2018-12-15T21:20:15.293Z,57.80
2018-12-15T21:22:44.030Z,58.42
2018-12-15T21:25:14.321Z,57.99
2018-12-15T21:27:42.989Z,58.35
2018-12-15T21:30:14.930Z,58.12
2018-12-15T21:32:45.908Z,58.51
2018-12-15T21:35:14.672Z,58.33
2018-12-15T21:37:45.051Z,58.45
2018-12-15T21:40:15.422Z,58.93
2018-12-15T21:42:43.946Z,59.17
2018-12-15T21:45:12.547Z,58.56
2018-12-15T21:47:41.782Z,58.61
2018-12-15T21:50:10.744Z,58.62
2018-12-15T21:52:39.566Z,59.02
2018-12-15T21:55:08.217Z,58.78
2018-12-15T21:57:37.019Z,59.09
2018-12-15T22:00:05.937Z,58.96
2018-12-15T22:02:34.437Z,58.60
2018-12-15T22:05:03.132Z,58.74
2018-12-15T22:07:31.767Z,59.05
2018-12-15T22:10:00.301Z,58.61
2018-12-15T22:12:29.541Z,58.66
2018-12-15T22:14:58.371Z,58.64
2018-12-15T22:17:26.876Z,58.08
2018-12-15T22:19:55.758Z,58.22
2018-12-15T22:22:24.369Z,58.30
2018-12-15T22:24:53.286Z,58.27
2018-12-15T22:27:22.263Z,58.73
2018-12-15T22:29:51.013Z,58.24
2018-12-15T22:32:19.721Z,58.66
2018-12-15T22:34:48.253Z,58.26
2018-12-15T22:37:16.870Z,58.28
2018-12-15T22:39:45.485Z,58.00
2018-12-15T22:42:14.234Z,58.56
2018-12-15T22:44:43.335Z,58.69
2018-12-15T22:47:11.906Z,58.99
2018-12-15T22:49:40.507Z,59.20
2018-12-15T22:52:09.922Z,58.87
2018-12-15T22:54:38.690Z,58.67
2018-12-15T22:57:07.321Z,59.06
2018-12-15T22:59:35.862Z,59.18
2018-12-15T23:02:04.722Z,59.02
2018-12-15T23:04:33.603Z,59.12
2018-12-15T23:07:02.982Z,59.00
2018-12-15T23:09:31.494Z,59.30
2018-12-15T23:12:00.108Z,59.25
2018-12-15T23:14:28.690Z,59.36
2018-12-15T23:16:57.427Z,58.51
2018-12-15T23:19:25.998Z,59.09
2018-12-15T23:21:54.536Z,59.29
2018-12-15T23:24:23.682Z,59.12
2018-12-15T23:26:52.217Z,59.16
2018-12-15T23:29:21.163Z,58.99
2018-12-15T23:31:49.789Z,59.21
2018-12-15T23:34:18.381Z,58.76
2018-12-15T23:36:46.958Z,58.68
2018-12-15T23:39:15.942Z,59.33
2018-12-15T23:41:44.438Z,59.07
2018-12-15T23:44:13.026Z,59.51
2018-12-15T23:46:41.518Z,59.74
2018-12-15T23:49:10.083Z,59.28
2018-12-15T23:51:38.630Z,59.84
2018-12-15T23:54:07.099Z,59.83
2018-12-15T23:56:35.566Z,59.84
2018-12-15T23:59:04.038Z,59.64
